createdAt,value
2022-08-03T00:00:33.407Z,19.85
2022-08-03T00:01:33.508Z,19.85
2022-08-03T00:02:33.752Z,19.84
2022-08-03T00:03:33.756Z,19.84
2022-08-03T00:04:34.219Z,19.83
2022-08-03T00:05:34.011Z,19.83
2022-08-03T00:06:37.139Z,19.83
2022-08-03T00:07:34.414Z,19.84
2022-08-03T00:08:34.417Z,19.84
2022-08-03T00:09:36.006Z,19.83
2022-08-03T00:10:34.634Z,19.82
2022-08-03T00:11:34.756Z,19.81
2022-08-03T00:12:35.551Z,19.81
2022-08-03T00:13:35.007Z,19.80
2022-08-03T00:14:35.164Z,19.80
2022-08-03T00:15:35.264Z,19.79
2022-08-03T00:16:35.436Z,19.79
2022-08-03T00:17:53.645Z,19.79
2022-08-03T00:18:36.645Z,19.79
2022-08-03T00:19:35.794Z,19.80
2022-08-03T00:20:35.939Z,19.80
2022-08-03T00:21:36.036Z,19.80
2022-08-03T00:22:36.335Z,19.80
2022-08-03T00:23:52.573Z,19.80
2022-08-03T00:24:37.433Z,19.80
2022-08-03T00:25:36.563Z,19.79
2022-08-03T00:26:36.745Z,19.79
2022-08-03T00:27:36.972Z,19.79
2022-08-03T00:28:36.964Z,19.79
2022-08-03T00:29:59.980Z,19.79
2022-08-03T00:30:38.236Z,19.79
2022-08-03T00:31:45.023Z,19.79
2022-08-03T00:32:40.053Z,19.78
2022-08-03T00:33:58.753Z,19.77
2022-08-03T00:34:57.320Z,19.75
2022-08-03T00:35:50.901Z,19.73
2022-08-03T00:36:39.240Z,19.72
2022-08-03T00:37:40.897Z,19.71
2022-08-03T00:38:38.335Z,19.69
2022-08-03T00:39:38.342Z,19.68
2022-08-03T00:40:38.492Z,19.68
2022-08-03T00:41:38.591Z,19.68
2022-08-03T00:42:38.679Z,19.69
2022-08-03T00:43:38.991Z,19.70
2022-08-03T00:44:38.942Z,19.70
2022-08-03T00:45:39.050Z,19.71
2022-08-03T00:46:39.138Z,19.72
2022-08-03T00:47:39.331Z,19.72
2022-08-03T00:48:39.700Z,19.72
2022-08-03T00:49:39.575Z,19.71
2022-08-03T00:50:39.810Z,19.71
2022-08-03T00:51:39.811Z,19.70
2022-08-03T00:52:39.951Z,19.69
2022-08-03T00:53:40.199Z,19.68
2022-08-03T00:54:40.158Z,19.67
2022-08-03T00:55:40.295Z,19.65
2022-08-03T00:56:40.428Z,19.64
2022-08-03T00:57:41.548Z,19.62
2022-08-03T00:58:40.750Z,19.61
2022-08-03T00:59:40.812Z,19.59
2022-08-03T01:00:40.908Z,19.57
2022-08-03T01:01:41.093Z,19.56
2022-08-03T01:02:41.162Z,19.55
2022-08-03T01:03:41.375Z,19.53
2022-08-03T01:04:41.368Z,19.52
2022-08-03T01:05:41.518Z,19.51
2022-08-03T01:06:41.636Z,19.50
2022-08-03T01:07:41.740Z,19.50
2022-08-03T01:08:41.947Z,19.49
2022-08-03T01:09:42.101Z,19.48
2022-08-03T01:10:42.076Z,19.48
2022-08-03T01:12:09.232Z,19.49
2022-08-03T01:12:43.545Z,19.48
2022-08-03T01:14:03.814Z,19.48
2022-08-03T01:14:43.594Z,19.48
2022-08-03T01:15:42.716Z,19.48
2022-08-03T01:16:43.076Z,19.48
2022-08-03T01:17:42.990Z,19.49
2022-08-03T01:18:43.163Z,19.49
2022-08-03T01:19:43.438Z,19.49
2022-08-03T01:20:43.424Z,19.48
2022-08-03T01:21:43.485Z,19.48
2022-08-03T01:22:43.624Z,19.47
2022-08-03T01:23:43.875Z,19.46
2022-08-03T01:24:43.976Z,19.46
2022-08-03T01:25:44.176Z,19.45
2022-08-03T01:26:44.190Z,19.45
2022-08-03T01:27:44.282Z,19.45
2022-08-03T01:28:44.414Z,19.45
2022-08-03T01:29:44.512Z,19.45
2022-08-03T01:30:44.913Z,19.44
2022-08-03T01:32:53.660Z,19.44
2022-08-03T01:33:02.784Z,19.44
2022-08-03T01:33:45.975Z,19.43
2022-08-03T01:34:45.105Z,19.42
2022-08-03T01:35:45.293Z,19.42
2022-08-03T01:36:45.395Z,19.42
2022-08-03T01:37:45.483Z,19.41
2022-08-03T01:38:45.659Z,19.41
2022-08-03T01:39:45.761Z,19.40
2022-08-03T01:40:46.592Z,19.38
2022-08-03T01:41:46.152Z,19.37
2022-08-03T01:42:46.144Z,19.35
2022-08-03T01:44:26.355Z,19.31
2022-08-03T01:44:47.451Z,19.27
2022-08-03T01:45:46.552Z,19.23
2022-08-03T01:46:48.842Z,19.21
2022-08-03T01:47:46.833Z,19.20
2022-08-03T01:48:46.860Z,19.19
2022-08-03T01:49:47.090Z,19.18
2022-08-03T01:50:47.130Z,19.18
2022-08-03T01:52:03.262Z,19.18
2022-08-03T01:52:48.350Z,19.18
2022-08-03T01:53:47.500Z,19.17
2022-08-03T01:54:47.638Z,19.16
2022-08-03T01:55:47.739Z,19.15
2022-08-03T01:56:48.070Z,19.15
2022-08-03T01:58:06.087Z,19.13
2022-08-03T01:58:49.149Z,19.11
2022-08-03T01:59:48.277Z,19.10
2022-08-03T02:00:48.495Z,19.08
2022-08-03T02:02:28.473Z,19.07
2022-08-03T02:02:49.874Z,19.05
2022-08-03T02:04:00.077Z,19.03
2022-08-03T02:04:49.949Z,19.01
2022-08-03T02:05:54.127Z,19.00
2022-08-03T02:07:00.305Z,18.99
2022-08-03T02:07:50.436Z,18.98
2022-08-03T02:08:49.458Z,18.97
2022-08-03T02:09:49.631Z,18.96
2022-08-03T02:10:49.732Z,18.95
2022-08-03T02:11:49.861Z,18.94
2022-08-03T02:12:51.261Z,18.93
2022-08-03T02:13:50.275Z,18.92
2022-08-03T02:14:50.269Z,18.91
2022-08-03T02:15:50.367Z,18.89
2022-08-03T02:16:50.517Z,18.89
2022-08-03T02:17:50.636Z,18.89
2022-08-03T02:18:50.847Z,18.90
2022-08-03T02:19:50.886Z,18.91
2022-08-03T02:20:51.015Z,18.91
2022-08-03T02:21:56.392Z,18.91
2022-08-03T02:22:52.265Z,18.90
2022-08-03T02:23:51.455Z,18.89
2022-08-03T02:24:51.558Z,18.87
2022-08-03T02:25:51.663Z,18.85
2022-08-03T02:26:51.881Z,18.83
2022-08-03T02:27:51.945Z,18.81
2022-08-03T02:28:52.195Z,18.78
2022-08-03T02:29:52.319Z,18.76
2022-08-03T02:30:53.973Z,18.74
2022-08-03T02:31:52.427Z,18.72
2022-08-03T02:32:52.554Z,18.71
2022-08-03T02:33:52.882Z,18.69
2022-08-03T02:34:52.813Z,18.67
2022-08-03T02:35:52.933Z,18.65
2022-08-03T02:36:53.094Z,18.64
2022-08-03T02:37:53.193Z,18.62
2022-08-03T02:38:53.964Z,18.61
2022-08-03T02:39:53.514Z,18.59
2022-08-03T02:40:53.585Z,18.58
2022-08-03T02:41:53.732Z,18.58
2022-08-03T02:42:53.875Z,18.58
2022-08-03T02:44:05.983Z,18.58
2022-08-03T02:44:55.211Z,18.59
2022-08-03T02:45:54.252Z,18.59
2022-08-03T02:46:56.792Z,18.59
2022-08-03T02:47:54.952Z,18.59
2022-08-03T02:48:54.634Z,18.58
2022-08-03T02:49:54.805Z,18.57
2022-08-03T02:50:54.892Z,18.56
2022-08-03T02:51:55.011Z,18.54
2022-08-03T02:52:55.100Z,18.53
2022-08-03T02:53:55.194Z,18.51
2022-08-03T02:54:55.419Z,18.49
2022-08-03T02:55:55.453Z,18.47
2022-08-03T02:56:55.569Z,18.45
2022-08-03T02:57:55.702Z,18.43
2022-08-03T02:58:55.843Z,18.41
2022-08-03T02:59:56.064Z,18.40
2022-08-03T03:00:56.276Z,18.38
2022-08-03T03:01:56.260Z,18.36
2022-08-03T03:02:56.391Z,18.35
2022-08-03T03:03:56.560Z,18.33
2022-08-03T03:05:52.241Z,18.32
2022-08-03T03:05:57.957Z,18.31
2022-08-03T03:06:56.927Z,18.30
2022-08-03T03:07:57.040Z,18.29
2022-08-03T03:08:59.791Z,18.29
2022-08-03T03:09:57.466Z,18.29
2022-08-03T03:10:57.471Z,18.28
2022-08-03T03:11:57.587Z,18.28
2022-08-03T03:12:57.690Z,18.27
2022-08-03T03:13:57.817Z,18.27
2022-08-03T03:14:58.025Z,18.27
2022-08-03T03:15:58.168Z,18.26
2022-08-03T03:16:58.199Z,18.26
2022-08-03T03:17:58.358Z,18.25
2022-08-03T03:18:58.458Z,18.24
2022-08-03T03:19:58.615Z,18.23
2022-08-03T03:20:58.808Z,18.22
2022-08-03T03:21:58.848Z,18.20
2022-08-03T03:22:59.015Z,18.18
2022-08-03T03:23:59.170Z,18.17
2022-08-03T03:24:59.247Z,18.15
2022-08-03T03:25:59.457Z,18.14
2022-08-03T03:26:59.518Z,18.13
2022-08-03T03:27:59.637Z,18.11
2022-08-03T03:28:59.765Z,18.10
2022-08-03T03:29:59.914Z,18.09
2022-08-03T03:31:00.132Z,18.08
2022-08-03T03:32:00.236Z,18.07
2022-08-03T03:33:00.323Z,18.06
2022-08-03T03:34:00.452Z,18.06
2022-08-03T03:35:00.553Z,18.05
2022-08-03T03:36:00.752Z,18.05
2022-08-03T03:37:00.801Z,18.04
2022-08-03T03:38:00.923Z,18.03
2022-08-03T03:39:15.094Z,18.02
2022-08-03T03:40:02.195Z,18.00
2022-08-03T03:41:01.520Z,17.98
2022-08-03T03:42:01.455Z,17.97
2022-08-03T03:43:01.617Z,17.96
2022-08-03T03:44:01.701Z,17.94
2022-08-03T03:45:01.815Z,17.93
2022-08-03T03:46:02.123Z,17.92
2022-08-03T03:47:02.104Z,17.92
2022-08-03T03:48:02.174Z,17.91
2022-08-03T03:49:02.376Z,17.90
2022-08-03T03:50:02.451Z,17.89
2022-08-03T03:51:02.601Z,17.89
2022-08-03T03:52:02.756Z,17.88
2022-08-03T03:53:02.820Z,17.88
2022-08-03T03:54:02.991Z,17.87
2022-08-03T03:55:03.095Z,17.86
2022-08-03T03:56:03.264Z,17.85
2022-08-03T03:57:03.478Z,17.83
2022-08-03T03:58:03.521Z,17.82
2022-08-03T03:59:03.669Z,17.82
2022-08-03T04:00:03.787Z,17.81
2022-08-03T04:01:03.951Z,17.81
2022-08-03T04:02:04.041Z,17.81
2022-08-03T04:03:04.158Z,17.82
2022-08-03T04:04:04.270Z,17.82
2022-08-03T04:05:04.429Z,17.82
2022-08-03T04:06:04.658Z,17.82
2022-08-03T04:07:04.637Z,17.82
2022-08-03T04:08:04.794Z,17.82
2022-08-03T04:09:04.919Z,17.81
2022-08-03T04:10:07.916Z,17.80
2022-08-03T04:11:06.219Z,17.79
2022-08-03T04:12:05.325Z,17.78
2022-08-03T04:13:05.406Z,17.78
2022-08-03T04:14:05.556Z,17.78
2022-08-03T04:15:05.716Z,17.78
2022-08-03T04:16:05.976Z,17.79
2022-08-03T04:17:06.031Z,17.79
2022-08-03T04:18:06.095Z,17.79
2022-08-03T04:19:06.197Z,17.79
2022-08-03T04:20:06.294Z,17.79
2022-08-03T04:21:06.437Z,17.78
2022-08-03T04:22:06.758Z,17.79
2022-08-03T04:23:12.849Z,17.79
2022-08-03T04:24:07.845Z,17.79
2022-08-03T04:25:06.988Z,17.79
2022-08-03T04:26:07.083Z,17.81
2022-08-03T04:27:07.394Z,17.82
2022-08-03T04:28:29.745Z,17.84
2022-08-03T04:29:08.474Z,17.86
2022-08-03T04:30:07.611Z,17.87
2022-08-03T04:31:07.771Z,17.90
2022-08-03T04:32:08.015Z,17.92
2022-08-03T04:33:07.993Z,17.94
2022-08-03T04:34:08.143Z,17.96
2022-08-03T04:35:08.267Z,17.98
2022-08-03T04:36:08.344Z,18.00
2022-08-03T04:37:08.625Z,18.01
2022-08-03T04:38:08.604Z,18.02
2022-08-03T04:39:08.686Z,18.03
2022-08-03T04:40:08.845Z,18.05
2022-08-03T04:41:08.923Z,18.06
2022-08-03T04:42:09.368Z,18.08
2022-08-03T04:43:09.232Z,18.09
2022-08-03T04:44:09.317Z,18.10
2022-08-03T04:45:09.463Z,18.11
2022-08-03T04:46:10.542Z,18.13
2022-08-03T04:47:09.729Z,18.14
2022-08-03T04:48:09.841Z,18.15
2022-08-03T04:49:09.981Z,18.16
2022-08-03T04:50:12.994Z,18.18
2022-08-03T04:51:10.230Z,18.19
2022-08-03T04:52:10.583Z,18.20
2022-08-03T04:53:10.453Z,18.22
2022-08-03T04:54:10.569Z,18.23
2022-08-03T04:55:10.673Z,18.24
2022-08-03T04:56:10.792Z,18.25
2022-08-03T04:57:11.040Z,18.26
2022-08-03T04:58:12.080Z,18.27
2022-08-03T04:59:11.311Z,18.28
2022-08-03T05:00:11.292Z,18.30
2022-08-03T05:01:11.458Z,18.32
2022-08-03T05:02:11.707Z,18.34
2022-08-03T05:03:23.803Z,18.37
2022-08-03T05:04:12.887Z,18.39
2022-08-03T05:05:11.920Z,18.41
2022-08-03T05:06:12.073Z,18.44
2022-08-03T05:07:12.591Z,18.47
2022-08-03T05:08:12.298Z,18.50
2022-08-03T05:09:12.458Z,18.52
2022-08-03T05:10:16.027Z,18.55
2022-08-03T05:11:12.669Z,18.57
2022-08-03T05:12:12.758Z,18.59
2022-08-03T05:13:12.910Z,18.61
2022-08-03T05:14:13.086Z,18.63
2022-08-03T05:15:13.147Z,18.64
2022-08-03T05:16:13.277Z,18.66
2022-08-03T05:17:13.378Z,18.67
2022-08-03T05:18:14.379Z,18.69
2022-08-03T05:19:13.737Z,18.71
2022-08-03T05:20:13.816Z,18.74
2022-08-03T05:21:13.938Z,18.77
2022-08-03T05:22:14.308Z,18.82
2022-08-03T05:23:14.136Z,18.88
2022-08-03T05:24:14.298Z,18.95
2022-08-03T05:25:19.117Z,19.02
2022-08-03T05:26:15.549Z,19.09
2022-08-03T05:27:14.617Z,19.16
2022-08-03T05:28:14.776Z,19.24
2022-08-03T05:29:14.939Z,19.33
2022-08-03T05:30:30.701Z,19.42
2022-08-03T05:31:16.145Z,19.50
2022-08-03T05:32:15.287Z,19.58
2022-08-03T05:33:15.394Z,19.67
2022-08-03T05:34:15.565Z,19.75
2022-08-03T05:35:57.921Z,19.83
2022-08-03T05:36:16.801Z,19.90
2022-08-03T05:37:15.927Z,19.97
2022-08-03T05:38:23.665Z,20.05
2022-08-03T05:39:17.263Z,20.13
2022-08-03T05:40:16.358Z,20.21
2022-08-03T05:41:22.813Z,20.30
2022-08-03T05:42:17.811Z,20.38
2022-08-03T05:43:16.672Z,20.46
2022-08-03T05:44:16.822Z,20.54
2022-08-03T05:45:16.995Z,20.62
2022-08-03T05:46:17.043Z,20.71
2022-08-03T05:47:17.163Z,20.80
2022-08-03T05:48:17.264Z,20.89
2022-08-03T05:49:17.416Z,20.98
2022-08-03T05:50:17.574Z,21.06
2022-08-03T05:51:17.613Z,21.14
2022-08-03T05:52:18.248Z,21.22
2022-08-03T05:53:17.882Z,21.30
2022-08-03T05:54:17.963Z,21.38
2022-08-03T05:55:18.178Z,21.46
2022-08-03T05:56:18.285Z,21.54
2022-08-03T05:57:18.334Z,21.60
2022-08-03T05:58:18.431Z,21.63
2022-08-03T05:59:37.719Z,21.65
2022-08-03T06:00:19.780Z,21.67
2022-08-03T06:01:18.801Z,21.71
2022-08-03T06:02:18.902Z,21.78
2022-08-03T06:03:19.052Z,21.85
2022-08-03T06:04:19.263Z,21.92
2022-08-03T06:05:19.290Z,22.00
2022-08-03T06:06:19.451Z,22.10
2022-08-03T06:07:19.573Z,22.18
2022-08-03T06:08:19.670Z,22.26
2022-08-03T06:09:19.853Z,22.32
2022-08-03T06:10:36.427Z,22.36
2022-08-03T06:11:21.083Z,22.39
2022-08-03T06:12:20.572Z,22.42
2022-08-03T06:13:20.370Z,22.47
2022-08-03T06:14:20.569Z,22.53
2022-08-03T06:15:20.619Z,22.61
2022-08-03T06:16:20.753Z,22.68
2022-08-03T06:17:20.919Z,22.74
2022-08-03T06:18:22.960Z,22.81
2022-08-03T06:19:21.190Z,22.87
2022-08-03T06:20:21.303Z,22.90
2022-08-03T06:21:22.455Z,22.93
2022-08-03T06:22:21.619Z,22.99
2022-08-03T06:23:21.699Z,23.08
2022-08-03T06:24:21.940Z,23.19
2022-08-03T06:25:21.930Z,23.30
2022-08-03T06:26:22.019Z,23.40
2022-08-03T06:27:36.349Z,23.48
2022-08-03T06:28:52.583Z,23.55
2022-08-03T06:29:23.388Z,23.61
2022-08-03T06:30:22.519Z,23.66
2022-08-03T06:31:22.794Z,23.72
2022-08-03T06:32:22.812Z,23.80
2022-08-03T06:33:22.898Z,23.88
2022-08-03T06:34:34.055Z,23.99
2022-08-03T06:35:24.608Z,24.09
2022-08-03T06:36:23.551Z,24.18
2022-08-03T06:37:23.439Z,24.24
2022-08-03T06:38:23.553Z,24.31
2022-08-03T06:39:23.978Z,24.41
2022-08-03T06:40:24.402Z,24.53
2022-08-03T06:41:24.029Z,24.63
2022-08-03T06:42:24.217Z,24.71
2022-08-03T06:43:24.215Z,24.78
2022-08-03T06:44:24.307Z,24.85
2022-08-03T06:45:24.419Z,24.93
2022-08-03T06:46:24.582Z,25.02
2022-08-03T06:47:24.647Z,25.14
2022-08-03T06:48:24.799Z,25.26
2022-08-03T06:49:24.971Z,25.37
2022-08-03T06:50:26.278Z,25.47
2022-08-03T06:52:05.154Z,25.56
2022-08-03T06:52:38.244Z,25.60
2022-08-03T06:53:26.341Z,25.61
2022-08-03T06:54:25.487Z,25.62
2022-08-03T06:55:25.625Z,25.67
2022-08-03T06:56:25.767Z,25.68
2022-08-03T06:57:25.826Z,25.64
2022-08-03T06:58:25.946Z,25.59
2022-08-03T07:00:09.304Z,25.57
2022-08-03T07:00:27.187Z,25.63
2022-08-03T07:01:26.460Z,25.76
2022-08-03T07:02:28.492Z,25.95
2022-08-03T07:03:26.515Z,26.15
2022-08-03T07:04:26.618Z,26.37
2022-08-03T07:05:26.727Z,26.59
2022-08-03T07:06:26.893Z,26.82
2022-08-03T07:07:26.999Z,27.04
2022-08-03T07:08:33.388Z,27.20
2022-08-03T07:09:28.154Z,27.26
2022-08-03T07:10:27.299Z,27.25
2022-08-03T07:11:27.477Z,27.29
2022-08-03T07:12:27.557Z,27.38
2022-08-03T07:13:27.665Z,27.48
2022-08-03T07:14:27.786Z,27.57
2022-08-03T07:15:54.494Z,27.65
2022-08-03T07:16:29.156Z,27.68
2022-08-03T07:17:28.173Z,27.67
2022-08-03T07:18:29.885Z,27.60
2022-08-03T07:19:28.375Z,27.52
2022-08-03T07:20:32.301Z,27.45
2022-08-03T07:21:28.586Z,27.37
2022-08-03T07:22:28.910Z,27.30
2022-08-03T07:23:28.847Z,27.23
2022-08-03T07:24:29.011Z,27.20
2022-08-03T07:25:29.151Z,27.23
2022-08-03T07:26:29.263Z,27.29
2022-08-03T07:27:29.527Z,27.37
2022-08-03T07:28:29.484Z,27.39
2022-08-03T07:29:29.594Z,27.34
2022-08-03T07:30:30.724Z,27.24
2022-08-03T07:31:34.416Z,27.14
2022-08-03T07:32:30.044Z,27.07
2022-08-03T07:33:30.105Z,26.97
2022-08-03T07:34:30.176Z,26.89
2022-08-03T07:35:30.292Z,26.88
2022-08-03T07:36:30.430Z,26.95
2022-08-03T07:37:30.730Z,27.02
2022-08-03T07:38:30.719Z,27.13
2022-08-03T07:39:30.851Z,27.29
2022-08-03T07:40:32.061Z,27.46
2022-08-03T07:41:31.043Z,27.60
2022-08-03T07:42:31.315Z,27.62
2022-08-03T07:43:31.399Z,27.54
2022-08-03T07:44:31.398Z,27.52
2022-08-03T07:45:31.506Z,27.61
2022-08-03T07:46:31.623Z,27.73
2022-08-03T07:47:35.020Z,27.85
2022-08-03T07:48:31.854Z,27.88
2022-08-03T07:49:32.016Z,27.76
2022-08-03T07:50:32.113Z,27.55
2022-08-03T07:51:32.216Z,27.39
2022-08-03T07:52:32.423Z,27.33
2022-08-03T07:53:32.572Z,27.37
2022-08-03T07:54:33.563Z,27.40
2022-08-03T07:55:32.810Z,27.39
2022-08-03T07:56:32.845Z,27.38
2022-08-03T07:57:33.000Z,27.39
2022-08-03T07:58:33.227Z,27.35
2022-08-03T07:59:56.444Z,27.29
2022-08-03T08:00:34.305Z,27.24
2022-08-03T08:01:33.446Z,27.24
2022-08-03T08:02:33.761Z,27.23
2022-08-03T08:03:52.431Z,27.18
2022-08-03T08:04:34.796Z,27.19
2022-08-03T08:05:33.889Z,27.28
2022-08-03T08:06:34.023Z,27.43
2022-08-03T08:07:34.182Z,27.53
2022-08-03T08:08:34.381Z,27.60
2022-08-03T08:09:34.351Z,27.61
2022-08-03T08:10:34.504Z,27.59
2022-08-03T08:11:39.674Z,27.68
2022-08-03T08:12:35.702Z,27.85
2022-08-03T08:13:34.809Z,28.05
2022-08-03T08:14:34.928Z,28.26
2022-08-03T08:15:35.061Z,28.39
2022-08-03T08:16:35.220Z,28.47
2022-08-03T08:17:35.272Z,28.51
2022-08-03T08:18:35.375Z,28.51
2022-08-03T08:19:36.769Z,28.54
2022-08-03T08:20:37.930Z,28.64
2022-08-03T08:21:53.105Z,28.77
2022-08-03T08:22:36.934Z,28.84
2022-08-03T08:23:43.201Z,28.88
2022-08-03T08:24:37.373Z,28.89
2022-08-03T08:25:36.309Z,28.89
2022-08-03T08:26:36.417Z,28.88
2022-08-03T08:28:30.435Z,28.90
2022-08-03T08:28:37.647Z,28.99
2022-08-03T08:29:36.938Z,29.12
2022-08-03T08:30:37.928Z,29.20
2022-08-03T08:31:37.079Z,29.16
2022-08-03T08:32:37.201Z,29.04
2022-08-03T08:34:01.506Z,28.92
2022-08-03T08:34:38.468Z,28.80
2022-08-03T08:35:37.558Z,28.71
2022-08-03T08:36:37.716Z,28.72
2022-08-03T08:37:37.771Z,28.84
2022-08-03T08:38:37.867Z,28.89
2022-08-03T08:39:38.037Z,28.90
2022-08-03T08:40:38.192Z,28.93
2022-08-03T08:41:38.288Z,28.92
2022-08-03T08:42:40.305Z,28.92
2022-08-03T08:43:39.557Z,29.01
2022-08-03T08:44:38.657Z,29.13
2022-08-03T08:45:38.877Z,29.19
2022-08-03T08:46:38.894Z,29.16
2022-08-03T08:47:50.942Z,29.03
2022-08-03T08:48:40.087Z,28.85
2022-08-03T08:49:39.323Z,28.72
2022-08-03T08:50:39.472Z,28.71
2022-08-03T08:51:50.556Z,28.77
2022-08-03T08:52:40.578Z,28.79
2022-08-03T08:53:39.715Z,28.76
2022-08-03T08:54:39.881Z,28.70
2022-08-03T08:55:59.250Z,28.61
2022-08-03T08:56:41.235Z,28.55
2022-08-03T08:57:43.134Z,28.57
2022-08-03T08:58:40.353Z,28.55
2022-08-03T08:59:48.440Z,28.52
2022-08-03T09:00:41.662Z,28.56
2022-08-03T09:01:40.743Z,28.61
2022-08-03T09:02:40.905Z,28.67
2022-08-03T09:03:41.015Z,28.74
2022-08-03T09:04:41.132Z,28.84
2022-08-03T09:05:55.430Z,28.86
2022-08-03T09:06:53.686Z,28.83
2022-08-03T09:07:42.443Z,28.82
2022-08-03T09:08:41.583Z,28.79
2022-08-03T09:10:10.627Z,28.73
2022-08-03T09:10:42.828Z,28.73
2022-08-03T09:11:53.726Z,28.78
2022-08-03T09:12:43.252Z,28.84
2022-08-03T09:13:42.210Z,28.95
2022-08-03T09:15:00.749Z,29.11
2022-08-03T09:15:59.083Z,29.25
2022-08-03T09:16:43.692Z,29.39
2022-08-03T09:17:43.964Z,29.57
2022-08-03T09:18:42.784Z,29.73
2022-08-03T09:19:42.933Z,29.87
2022-08-03T09:20:44.055Z,30.04
2022-08-03T09:21:43.191Z,30.20
2022-08-03T09:22:43.410Z,30.29
2022-08-03T09:24:00.649Z,30.28
2022-08-03T09:24:44.580Z,30.24
2022-08-03T09:25:43.722Z,30.18
2022-08-03T09:26:44.021Z,30.14
2022-08-03T09:27:44.047Z,30.05
2022-08-03T09:29:00.519Z,29.94
2022-08-03T09:29:45.290Z,29.91
2022-08-03T09:30:44.444Z,29.90
2022-08-03T09:31:45.371Z,29.90
2022-08-03T09:32:44.740Z,29.85
2022-08-03T09:33:44.842Z,29.76
2022-08-03T09:34:44.959Z,29.66
2022-08-03T09:35:53.545Z,29.61
2022-08-03T09:36:46.423Z,29.64
2022-08-03T09:38:12.723Z,29.70
2022-08-03T09:38:46.418Z,29.62
2022-08-03T09:39:45.533Z,29.48
2022-08-03T09:40:45.642Z,29.47
2022-08-03T09:41:45.763Z,29.55
2022-08-03T09:42:45.977Z,29.63
2022-08-03T09:43:45.991Z,29.70
2022-08-03T09:44:46.120Z,29.78
2022-08-03T09:45:46.236Z,29.83
2022-08-03T09:46:46.355Z,29.91
2022-08-03T09:47:46.615Z,30.06
2022-08-03T09:48:46.615Z,30.21
2022-08-03T09:49:46.715Z,30.33
2022-08-03T09:50:58.524Z,30.44
2022-08-03T09:52:31.432Z,30.46
2022-08-03T09:52:49.372Z,30.40
2022-08-03T09:53:51.497Z,30.33
2022-08-03T09:54:48.336Z,30.23
2022-08-03T09:56:34.857Z,30.17
2022-08-03T09:56:48.566Z,30.15
2022-08-03T09:57:47.712Z,30.13
2022-08-03T09:58:47.944Z,30.09
2022-08-03T09:59:47.994Z,30.02
2022-08-03T10:00:48.257Z,29.92
2022-08-03T10:01:48.339Z,29.80
2022-08-03T10:02:48.371Z,29.69
2022-08-03T10:04:03.579Z,29.61
2022-08-03T10:04:49.644Z,29.59
2022-08-03T10:05:48.889Z,29.61
2022-08-03T10:06:48.872Z,29.67
2022-08-03T10:07:49.031Z,29.71
2022-08-03T10:08:49.130Z,29.80
2022-08-03T10:09:49.230Z,29.99
2022-08-03T10:10:49.551Z,30.23
2022-08-03T10:11:49.501Z,30.40
2022-08-03T10:12:49.629Z,30.45
2022-08-03T10:13:49.763Z,30.39
2022-08-03T10:14:49.870Z,30.31
2022-08-03T10:16:23.181Z,30.26
2022-08-03T10:16:51.248Z,30.23
2022-08-03T10:17:50.228Z,30.21
2022-08-03T10:18:50.341Z,30.28
2022-08-03T10:19:50.498Z,30.45
2022-08-03T10:20:50.633Z,30.64
2022-08-03T10:21:50.769Z,30.81
2022-08-03T10:22:50.897Z,30.97
2022-08-03T10:23:50.985Z,31.04
2022-08-03T10:24:51.148Z,31.03
2022-08-03T10:25:51.296Z,30.96
2022-08-03T10:26:51.395Z,30.84
2022-08-03T10:27:51.636Z,30.72
2022-08-03T10:28:51.632Z,30.63
2022-08-03T10:29:51.725Z,30.55
2022-08-03T10:30:51.885Z,30.59
2022-08-03T10:31:54.697Z,30.77
2022-08-03T10:32:53.213Z,30.92
2022-08-03T10:33:53.323Z,30.96
2022-08-03T10:35:00.137Z,30.99
2022-08-03T10:35:53.483Z,31.05
2022-08-03T10:36:52.613Z,31.08
2022-08-03T10:37:56.678Z,30.99
2022-08-03T10:38:53.404Z,30.86
2022-08-03T10:39:53.024Z,30.75
2022-08-03T10:40:57.149Z,30.66
2022-08-03T10:41:54.266Z,30.60
2022-08-03T10:42:53.453Z,30.51
2022-08-03T10:43:53.650Z,30.37
2022-08-03T10:44:53.660Z,30.25
2022-08-03T10:45:53.783Z,30.22
2022-08-03T10:46:53.893Z,30.21
2022-08-03T10:47:54.082Z,30.19
2022-08-03T10:48:54.336Z,30.17
2022-08-03T10:49:54.303Z,30.17
2022-08-03T10:50:54.399Z,30.24
2022-08-03T10:51:54.580Z,30.31
2022-08-03T10:52:54.639Z,30.35
2022-08-03T10:53:55.839Z,30.38
2022-08-03T10:54:54.919Z,30.37
2022-08-03T10:55:55.017Z,30.33
2022-08-03T10:56:55.167Z,30.30
2022-08-03T10:57:58.719Z,30.33
2022-08-03T10:58:56.941Z,30.39
2022-08-03T10:59:55.467Z,30.45
2022-08-03T11:00:55.691Z,30.52
2022-08-03T11:02:00.288Z,30.64
2022-08-03T11:02:56.865Z,30.84
2022-08-03T11:03:56.163Z,31.06
2022-08-03T11:04:57.785Z,31.23
2022-08-03T11:05:56.296Z,31.42
2022-08-03T11:06:56.434Z,31.62
2022-08-03T11:07:56.584Z,31.84
2022-08-03T11:08:56.814Z,32.06
2022-08-03T11:09:56.826Z,32.24
2022-08-03T11:10:56.953Z,32.28
2022-08-03T11:11:57.053Z,32.25
2022-08-03T11:12:57.212Z,32.27
2022-08-03T11:13:57.483Z,32.20
2022-08-03T11:14:57.442Z,32.06
2022-08-03T11:15:59.994Z,31.88
2022-08-03T11:16:58.719Z,31.63
2022-08-03T11:17:57.822Z,31.44
2022-08-03T11:18:58.262Z,31.30
2022-08-03T11:19:58.690Z,31.19
2022-08-03T11:20:58.212Z,31.20
2022-08-03T11:21:58.322Z,31.29
2022-08-03T11:22:58.409Z,31.32
2022-08-03T11:24:05.649Z,31.26
2022-08-03T11:24:59.802Z,31.24
2022-08-03T11:25:58.748Z,31.30
2022-08-03T11:27:01.927Z,31.45
2022-08-03T11:27:59.967Z,31.64
2022-08-03T11:28:59.117Z,31.80
2022-08-03T11:29:59.245Z,31.87
2022-08-03T11:30:59.506Z,31.87
2022-08-03T11:31:59.466Z,31.84
2022-08-03T11:32:59.556Z,31.86
2022-08-03T11:33:59.715Z,31.97
2022-08-03T11:34:59.845Z,32.07
2022-08-03T11:36:00.241Z,32.10
2022-08-03T11:37:00.064Z,32.01
2022-08-03T11:38:03.163Z,31.89
2022-08-03T11:39:01.317Z,31.86
2022-08-03T11:40:02.582Z,31.95
2022-08-03T11:41:00.731Z,32.12
2022-08-03T11:42:00.712Z,32.21
2022-08-03T11:43:00.852Z,32.21
2022-08-03T11:44:01.105Z,32.16
2022-08-03T11:45:01.095Z,32.06
2022-08-03T11:46:01.271Z,31.99
2022-08-03T11:47:01.450Z,31.93
2022-08-03T11:48:01.481Z,31.82
2022-08-03T11:49:05.278Z,31.73
2022-08-03T11:50:02.746Z,31.66
2022-08-03T11:51:01.887Z,31.62
2022-08-03T11:52:01.996Z,31.61
2022-08-03T11:53:02.090Z,31.60
2022-08-03T11:54:02.219Z,31.52
2022-08-03T11:55:02.340Z,31.36
2022-08-03T11:56:02.447Z,31.24
2022-08-03T11:57:02.747Z,31.16
2022-08-03T11:59:01.152Z,31.09
2022-08-03T11:59:20.723Z,31.04
2022-08-03T12:00:03.957Z,31.00
2022-08-03T12:01:03.155Z,30.96
2022-08-03T12:02:03.345Z,30.91
2022-08-03T12:03:03.420Z,30.92
2022-08-03T12:04:03.467Z,31.05
2022-08-03T12:05:03.562Z,31.22
2022-08-03T12:06:03.735Z,31.35
2022-08-03T12:07:03.959Z,31.41
2022-08-03T12:08:06.660Z,31.36
2022-08-03T12:09:04.090Z,31.24
2022-08-03T12:10:04.224Z,31.21
2022-08-03T12:11:04.393Z,31.30
2022-08-03T12:12:04.604Z,31.41
2022-08-03T12:13:04.634Z,31.48
2022-08-03T12:14:46.369Z,31.60
2022-08-03T12:15:05.910Z,31.79
2022-08-03T12:16:05.042Z,31.99
2022-08-03T12:17:05.240Z,32.16
2022-08-03T12:18:05.281Z,32.32
2022-08-03T12:19:06.408Z,32.45
2022-08-03T12:20:05.551Z,32.57
2022-08-03T12:21:05.642Z,32.71
2022-08-03T12:22:05.981Z,32.84
2022-08-03T12:23:05.990Z,32.96
2022-08-03T12:24:06.050Z,33.08
2022-08-03T12:25:06.150Z,33.16
2022-08-03T12:26:06.311Z,33.18
2022-08-03T12:27:06.460Z,33.14
2022-08-03T12:28:06.501Z,33.06
2022-08-03T12:29:07.640Z,32.91
2022-08-03T12:30:06.780Z,32.73
2022-08-03T12:31:06.869Z,32.55
2022-08-03T12:32:07.100Z,32.41
2022-08-03T12:33:07.198Z,32.29
2022-08-03T12:34:07.188Z,32.25
2022-08-03T12:35:07.338Z,32.25
2022-08-03T12:36:07.447Z,32.25
2022-08-03T12:37:18.957Z,32.29
2022-08-03T12:38:08.644Z,32.36
2022-08-03T12:39:07.770Z,32.51
2022-08-03T12:40:10.791Z,32.66
2022-08-03T12:41:08.043Z,32.78
2022-08-03T12:42:08.306Z,32.94
2022-08-03T12:43:08.418Z,33.11
2022-08-03T12:44:08.445Z,33.19
2022-08-03T12:45:08.546Z,33.09
2022-08-03T12:46:08.687Z,32.81
2022-08-03T12:47:09.001Z,32.59
2022-08-03T12:48:08.920Z,32.52
2022-08-03T12:49:09.104Z,32.51
2022-08-03T12:50:09.205Z,32.47
2022-08-03T12:51:09.305Z,32.39
2022-08-03T12:52:09.531Z,32.26
2022-08-03T12:53:09.514Z,32.21
2022-08-03T12:54:09.679Z,32.31